Time;durP1;ratioP1;P1;durP2;ratioP2;P2;SDS_P1;SDS_P2;PMS_P1;PMS_P2;Temp;Humidity;BMP_temperature;BMP_pressure;BME280_temperature;BME280_humidity;BME280_pressure;Samples;Min_cycle;Max_cycle;Signal;HPM_P1;HPM_P2
2021/06/07 00:01:46;;;;;;;14.05;8.93;;;;;;;20.80;61.78;100378.06;5053647;28;20045;-71
2021/06/07 00:04:15;;;;;;;10.98;8.35;;;;;;;20.80;61.98;100375.34;5053752;28;20051;-71
2021/06/07 00:06:44;;;;;;;11.73;8.07;;;;;;;20.93;61.66;100377.66;5053477;28;20045;-71
2021/06/07 00:09:16;;;;;;;11.30;9.15;;;;;;;20.69;62.53;100376.44;5053618;28;20398;-71
2021/06/07 00:11:47;;;;;;;11.55;8.63;;;;;;;20.49;63.42;100375.72;5053733;28;20057;-72
2021/06/07 00:14:16;;;;;;;15.60;9.20;;;;;;;20.57;63.32;100373.09;5053027;28;20045;-72
2021/06/07 00:16:44;;;;;;;10.93;8.90;;;;;;;20.57;63.33;100372.25;5052140;28;20045;-71
2021/06/07 00:19:18;;;;;;;11.68;9.05;;;;;;;20.54;63.41;100373.38;5053122;28;20044;-78
2021/06/07 00:21:48;;;;;;;10.85;8.73;;;;;;;20.52;63.98;100370.00;5053525;28;20394;-71
2021/06/07 00:24:17;;;;;;;12.40;8.82;;;;;;;20.39;64.15;100368.63;5053069;28;20041;-72
2021/06/07 00:26:45;;;;;;;10.18;8.77;;;;;;;20.38;64.22;100378.63;5053196;28;20048;-71
2021/06/07 00:29:14;;;;;;;11.30;8.30;;;;;;;20.51;63.58;100379.13;5053099;28;20045;-76
2021/06/07 00:31:42;;;;;;;10.65;8.13;;;;;;;20.43;64.19;100370.91;5053158;28;20041;-71
2021/06/07 00:34:10;;;;;;;11.48;8.63;;;;;;;20.38;64.04;100373.19;5053093;28;20478;-70
2021/06/07 00:36:39;;;;;;;14.82;8.45;;;;;;;20.39;64.33;100364.06;5053043;28;20044;-72
2021/06/07 00:39:12;;;;;;;9.82;8.13;;;;;;;20.43;64.24;100367.34;5053186;28;20041;-75
2021/06/07 00:41:41;;;;;;;11.32;8.18;;;;;;;20.51;63.97;100370.16;5053402;28;20089;-75
2021/06/07 00:44:10;;;;;;;11.30;8.18;;;;;;;20.62;63.50;100380.75;5052591;28;20048;-75
2021/06/07 00:46:38;;;;;;;11.15;8.00;;;;;;;20.74;63.17;100386.78;5052952;28;20106;-75
2021/06/07 00:49:07;;;;;;;9.85;7.95;;;;;;;20.51;64.16;100389.97;5052593;28;20049;-75
2021/06/07 00:51:36;;;;;;;11.38;8.90;;;;;;;20.39;65.00;100384.88;5051726;28;20061;-75
2021/06/07 00:54:06;;;;;;;10.52;8.15;;;;;;;20.20;64.86;100380.44;5052961;28;20040;-74
2021/06/07 00:56:35;;;;;;;11.60;8.40;;;;;;;20.33;65.09;100386.34;5052562;28;20036;-74
2021/06/07 00:59:05;;;;;;;8.98;8.02;;;;;;;20.29;65.19;100391.22;5052949;28;20079;-74
2021/06/07 01:01:33;;;;;;;11.30;7.95;;;;;;;20.26;65.21;100394.19;5052728;28;20083;-75
2021/06/07 01:04:02;;;;;;;10.35;8.27;;;;;;;20.10;65.90;100390.47;5052911;28;20044;-74
2021/06/07 01:06:30;;;;;;;9.77;7.93;;;;;;;20.17;65.62;100397.84;5052390;28;20118;-76
2021/06/07 01:08:58;;;;;;;10.30;7.88;;;;;;;20.12;65.84;100388.47;5052625;28;20044;-75
2021/06/07 01:11:26;;;;;;;9.35;8.35;;;;;;;20.07;65.52;100385.34;5052312;28;20398;-75
2021/06/07 01:13:55;;;;;;;10.20;8.00;;;;;;;19.97;65.22;100383.53;5052909;28;20482;-74
2021/06/07 01:16:23;;;;;;;11.55;8.18;;;;;;;19.82;66.18;100387.72;5052604;28;20090;-75
2021/06/07 01:18:52;;;;;;;11.70;7.78;;;;;;;19.81;65.96;100372.50;5052899;28;20057;-75
2021/06/07 01:21:23;;;;;;;13.90;8.32;;;;;;;19.86;66.09;100383.72;5052184;28;20048;-75
2021/06/07 01:23:54;;;;;;;8.88;7.60;;;;;;;19.78;65.91;100380.91;5051245;28;20059;-74
2021/06/07 01:26:23;;;;;;;9.48;7.70;;;;;;;19.90;65.74;100384.28;5052567;28;20041;-74
2021/06/07 01:28:52;;;;;;;9.65;7.95;;;;;;;19.73;66.70;100377.78;5052578;28;20072;-74
2021/06/07 01:31:21;;;;;;;10.60;8.30;;;;;;;19.69;67.13;100376.41;5052304;28;20045;-74
2021/06/07 01:33:51;;;;;;;11.15;7.95;;;;;;;19.76;66.58;100377.50;5052568;28;20090;-73
2021/06/07 01:36:19;;;;;;;10.00;8.27;;;;;;;19.83;65.73;100384.03;5052081;28;20573;-73
2021/06/07 01:38:48;;;;;;;10.93;7.90;;;;;;;19.75;66.46;100374.94;5052567;28;20053;-74
2021/06/07 01:41:18;;;;;;;11.20;8.43;;;;;;;19.63;66.93;100374.28;5052360;28;20091;-74
2021/06/07 01:43:47;;;;;;;9.23;7.60;;;;;;;19.93;65.95;100378.56;5051518;28;20053;-75
2021/06/07 01:46:15;;;;;;;9.30;7.85;;;;;;;19.97;65.59;100372.69;5052299;28;20049;-74
2021/06/07 01:48:43;;;;;;;8.75;7.80;;;;;;;19.83;66.08;100373.19;5052421;28;20486;-75
2021/06/07 01:51:11;;;;;;;9.38;8.40;;;;;;;19.73;66.15;100384.06;5052529;28;20053;-75
2021/06/07 01:53:41;;;;;;;9.57;7.68;;;;;;;19.72;66.05;100387.78;5052109;28;20045;-75
2021/06/07 01:56:10;;;;;;;9.82;8.00;;;;;;;19.71;66.33;100387.91;5052390;28;20045;-75
2021/06/07 01:58:42;;;;;;;11.10;7.75;;;;;;;19.69;66.34;100389.94;5051908;28;20057;-75
2021/06/07 02:01:13;;;;;;;11.32;7.60;;;;;;;19.71;65.64;100385.22;5054015;28;20045;-75
2021/06/07 02:03:41;;;;;;;10.88;7.65;;;;;;;19.70;65.69;100378.09;5055865;28;20095;-75
2021/06/07 02:06:13;;;;;;;11.38;7.78;;;;;;;19.52;66.48;100385.25;5056245;28;20052;-75
2021/06/07 02:08:41;;;;;;;10.73;8.07;;;;;;;19.40;67.03;100385.41;5054886;28;20050;-74
2021/06/07 02:11:12;;;;;;;10.00;7.60;;;;;;;19.44;66.74;100388.66;5055833;28;20040;-75
2021/06/07 02:13:41;;;;;;;9.23;8.27;;;;;;;19.42;67.06;100383.41;5055481;28;20041;-75
2021/06/07 02:16:15;;;;;;;12.07;7.63;;;;;;;19.29;67.64;100385.56;5055988;28;20041;-75
2021/06/07 02:18:42;;;;;;;10.80;7.90;;;;;;;19.42;67.27;100383.41;5055589;28;20051;-75
2021/06/07 02:21:12;;;;;;;10.55;8.00;;;;;;;19.32;68.21;100384.44;5055682;28;20140;-75
2021/06/07 02:23:42;;;;;;;10.35;8.10;;;;;;;19.45;67.39;100385.81;5055337;28;20846;-75
2021/06/07 02:26:10;;;;;;;10.68;8.20;;;;;;;19.49;67.50;100385.50;5054833;28;20048;-75
2021/06/07 02:28:46;;;;;;;11.20;8.45;;;;;;;19.52;67.40;100385.25;5055150;28;20053;-74
2021/06/07 02:31:14;;;;;;;9.90;8.13;;;;;;;19.41;67.07;100383.56;5055640;28;20451;-74
2021/06/07 02:33:42;;;;;;;9.77;7.57;;;;;;;19.47;67.11;100384.81;5055285;28;20409;-73
2021/06/07 02:36:10;;;;;;;10.55;7.90;;;;;;;19.39;67.28;100390.94;5055368;28;20044;-72
2021/06/07 02:38:38;;;;;;;10.57;7.40;;;;;;;19.48;66.58;100389.22;5055187;28;20390;-73
2021/06/07 02:41:06;;;;;;;9.95;7.13;;;;;;;19.48;66.60;100394.63;5055141;28;20048;-73
2021/06/07 02:43:33;;;;;;;7.82;6.90;;;;;;;19.50;66.52;100387.25;5055077;28;20041;-75
2021/06/07 02:46:03;;;;;;;9.82;6.75;;;;;;;19.50;66.71;100379.13;5054934;28;20056;-73
2021/06/07 02:48:31;;;;;;;9.30;7.15;;;;;;;19.36;67.19;100386.69;5054896;28;20043;-72
2021/06/07 02:50:58;;;;;;;9.32;7.00;;;;;;;19.39;67.11;100382.84;5055043;28;20095;-74
2021/06/07 02:53:26;;;;;;;9.73;7.40;;;;;;;19.51;66.41;100381.69;5053299;28;20045;-75
2021/06/07 02:55:54;;;;;;;7.65;6.70;;;;;;;19.55;65.99;100387.66;5055181;28;20044;-76
2021/06/07 02:58:23;;;;;;;10.52;7.05;;;;;;;19.50;66.50;100387.25;5055193;28;20489;-78
2021/06/07 03:00:54;;;;;;;8.10;6.47;;;;;;;19.26;67.16;100388.56;5054836;28;20041;-74
2021/06/07 03:03:26;;;;;;;8.05;6.25;;;;;;;19.29;67.27;100398.22;5054935;28;20041;-75
2021/06/07 03:05:55;;;;;;;10.38;6.25;;;;;;;19.32;66.96;100397.97;5054810;28;20395;-75
2021/06/07 03:08:25;;;;;;;8.77;6.13;;;;;;;19.26;67.19;100401.22;5054873;28;20051;-77
2021/06/07 03:10:56;;;;;;;8.57;6.00;;;;;;;19.28;67.25;100402.78;5055039;28;20048;-75
2021/06/07 03:13:24;;;;;;;8.23;5.70;;;;;;;19.45;66.97;100396.63;5054077;28;20067;-78
2021/06/07 03:15:54;;;;;;;8.00;6.45;;;;;;;19.20;67.94;100402.63;5054468;28;20448;-73
2021/06/07 03:18:24;;;;;;;9.45;5.40;;;;;;;19.30;67.18;100395.41;5054510;28;20064;-74
2021/06/07 03:20:54;;;;;;;7.78;5.90;;;;;;;19.21;67.71;100407.09;5054573;28;20049;-74
2021/06/07 03:23:27;;;;;;;8.57;5.23;;;;;;;19.29;67.43;100401.78;5054519;28;20122;-78
2021/06/07 03:25:55;;;;;;;9.50;5.78;;;;;;;19.30;67.31;100403.50;5054412;28;20045;-74
2021/06/07 03:28:23;;;;;;;8.23;5.38;;;;;;;19.41;66.66;100403.34;5054467;28;20401;-74
2021/06/07 03:30:52;;;;;;;8.57;5.43;;;;;;;19.39;66.84;100402.63;5054213;28;20102;-73
2021/06/07 03:33:21;;;;;;;6.75;5.07;;;;;;;19.42;66.51;100399.66;5054487;28;20548;-73
2021/06/07 03:35:51;;;;;;;7.05;5.20;;;;;;;19.31;67.14;100402.50;5054102;28;20429;-73
2021/06/07 03:38:20;;;;;;;7.03;5.10;;;;;;;19.25;67.88;100394.97;5054283;28;20079;-73
2021/06/07 03:40:51;;;;;;;8.43;5.25;;;;;;;19.33;67.66;100394.25;5053698;28;20114;-73
2021/06/07 03:43:21;;;;;;;9.90;5.75;;;;;;;19.41;67.31;100397.94;5054365;28;20060;-72
2021/06/07 03:45:50;;;;;;;8.23;5.30;;;;;;;19.40;67.53;100401.66;5053372;28;20061;-72
2021/06/07 03:48:18;;;;;;;6.90;5.18;;;;;;;19.30;67.70;100398.09;5054195;28;20063;-72
2021/06/07 03:50:46;;;;;;;7.35;4.80;;;;;;;19.37;67.55;100399.22;5053723;28;20045;-71
2021/06/07 03:53:15;;;;;;;7.82;5.03;;;;;;;19.49;67.54;100394.47;5054175;28;20048;-72
2021/06/07 03:55:44;;;;;;;7.90;5.57;;;;;;;19.35;67.66;100395.81;5053544;28;20402;-73
2021/06/07 03:58:12;;;;;;;6.72;4.80;;;;;;;19.43;67.80;100393.22;5054164;28;20090;-72
2021/06/07 04:00:41;;;;;;;7.90;5.70;;;;;;;19.47;67.49;100392.94;5053594;28;20037;-72
2021/06/07 04:03:11;;;;;;;7.97;5.53;;;;;;;19.36;67.99;100385.84;5052478;28;20103;-72
2021/06/07 04:05:39;;;;;;;8.75;5.40;;;;;;;19.37;68.00;100393.81;5053623;28;20099;-72
2021/06/07 04:08:10;;;;;;;10.13;5.90;;;;;;;19.40;68.27;100390.81;5053617;28;20048;-71
2021/06/07 04:10:39;;;;;;;8.23;5.57;;;;;;;19.47;68.07;100392.94;5053454;28;20041;-72
2021/06/07 04:13:08;;;;;;;8.98;5.43;;;;;;;19.32;68.83;100385.28;5053440;28;20041;-73
2021/06/07 04:15:36;;;;;;;8.05;5.85;;;;;;;19.29;69.40;100395.53;5053216;28;20087;-73
2021/06/07 04:18:05;;;;;;;7.55;5.93;;;;;;;19.41;69.37;100394.38;5053541;28;20037;-74
2021/06/07 04:20:33;;;;;;;8.40;5.60;;;;;;;19.45;69.05;100388.53;5053274;28;20033;-74
2021/06/07 04:23:01;;;;;;;8.20;5.60;;;;;;;19.66;67.68;100388.34;5053105;28;20041;-74
2021/06/07 04:25:30;;;;;;;7.95;5.70;;;;;;;19.59;67.71;100398.06;5052285;28;20068;-74
2021/06/07 04:28:01;;;;;;;9.85;6.18;;;;;;;19.58;67.94;100396.34;5053586;28;20045;-74
2021/06/07 04:30:31;;;;;;;9.82;6.38;;;;;;;19.52;68.62;100396.91;5052984;28;20041;-79
2021/06/07 04:33:01;;;;;;;9.18;6.05;;;;;;;19.43;68.97;100398.63;5053126;28;20045;-74
2021/06/07 04:35:30;;;;;;;10.48;5.97;;;;;;;19.56;68.74;100398.34;5052682;28;20041;-74
2021/06/07 04:38:00;;;;;;;8.35;6.10;;;;;;;19.59;68.53;100403.50;5052974;28;20076;-76
2021/06/07 04:40:30;;;;;;;8.23;6.05;;;;;;;19.65;68.48;100400.19;5053208;28;20045;-76
2021/06/07 04:43:00;;;;;;;10.05;6.30;;;;;;;19.56;69.03;100402.91;5053044;28;20433;-75
2021/06/07 04:45:30;;;;;;;9.95;6.40;;;;;;;19.61;68.72;100392.50;5052898;28;20085;-74
2021/06/07 04:47:59;;;;;;;9.10;5.97;;;;;;;19.66;68.30;100401.03;5052628;28;20052;-73
2021/06/07 04:50:28;;;;;;;8.85;6.05;;;;;;;19.65;68.67;100400.19;5052889;28;20052;-73
2021/06/07 04:53:00;;;;;;;8.80;6.03;;;;;;;19.83;68.30;100405.69;5052992;28;20045;-73
2021/06/07 04:55:32;;;;;;;8.60;5.15;;;;;;;19.96;67.60;100400.75;5052823;28;20470;-77
2021/06/07 04:58:01;;;;;;;8.10;6.00;;;;;;;19.89;68.13;100409.66;5053077;28;20095;-73
2021/06/07 05:00:31;;;;;;;11.43;6.10;;;;;;;19.85;67.81;100417.19;5052548;28;20044;-73
2021/06/07 05:02:59;;;;;;;10.30;5.95;;;;;;;19.98;67.68;100404.22;5052472;28;20127;-74
2021/06/07 05:05:27;;;;;;;8.82;5.88;;;;;;;20.08;67.33;100403.31;5052790;28;20045;-76
2021/06/07 05:07:56;;;;;;;10.43;5.90;;;;;;;20.47;66.19;100407.53;5052451;28;20049;-75
2021/06/07 05:10:25;;;;;;;8.90;5.78;;;;;;;20.63;65.28;100408.72;5052637;28;20036;-74
2021/06/07 05:12:53;;;;;;;9.13;5.93;;;;;;;20.90;64.70;100413.22;5052334;28;20045;-74
2021/06/07 05:15:22;;;;;;;7.22;5.43;;;;;;;20.86;65.04;100412.69;5052845;28;20140;-75
2021/06/07 05:17:51;;;;;;;11.05;5.47;;;;;;;21.20;63.29;100411.97;5052447;28;20406;-76
2021/06/07 05:20:24;;;;;;;8.00;5.70;;;;;;;23.14;57.85;100413.94;5052777;28;20037;-75
2021/06/07 05:22:53;;;;;;;11.13;5.32;;;;;;;22.97;56.68;100407.66;5052363;28;20037;-75
2021/06/07 05:25:22;;;;;;;9.45;5.40;;;;;;;22.14;59.57;100406.69;5052563;28;20049;-77
2021/06/07 05:27:51;;;;;;;8.82;5.03;;;;;;;21.96;59.00;100410.31;5051947;28;20045;-76
2021/06/07 05:30:21;;;;;;;9.90;5.13;;;;;;;21.76;60.06;100406.13;5052568;28;20132;-77
2021/06/07 05:32:49;;;;;;;6.15;4.93;;;;;;;21.54;59.93;100398.53;5052376;28;20052;-75
2021/06/07 05:35:20;;;;;;;9.77;5.10;;;;;;;21.62;60.25;100406.75;5052885;28;20505;-75
2021/06/07 05:37:48;;;;;;;7.63;5.15;;;;;;;21.46;60.90;100412.03;5056332;28;20414;-76
2021/06/07 05:40:19;;;;;;;8.10;4.93;;;;;;;21.55;60.82;100406.50;5056146;28;20513;-74
2021/06/07 05:42:48;;;;;;;7.45;5.40;;;;;;;21.70;59.90;100407.63;5053467;28;20055;-77
2021/06/07 05:45:17;;;;;;;6.80;5.13;;;;;;;21.93;58.76;100407.09;5050908;28;20052;-71
2021/06/07 05:47:46;;;;;;;9.40;5.50;;;;;;;22.13;58.41;100411.28;5056151;28;20623;-70
2021/06/07 05:50:21;;;;;;;8.00;5.00;;;;;;;22.16;58.76;100408.22;5056135;28;20486;-69
2021/06/07 05:52:50;;;;;;;8.52;5.10;;;;;;;22.32;58.39;100403.91;5055667;28;20052;-70
2021/06/07 05:55:20;;;;;;;7.60;4.93;;;;;;;22.63;57.53;100405.00;5056277;28;20562;-70
2021/06/07 05:57:50;;;;;;;9.52;5.28;;;;;;;22.95;56.42;100406.09;5056021;28;20068;-68
2021/06/07 06:00:22;;;;;;;9.60;5.20;;;;;;;23.48;54.65;100399.31;5056070;28;20041;-70
2021/06/07 06:02:50;;;;;;;6.97;4.80;;;;;;;23.92;53.79;100395.13;5055598;28;20044;-70
2021/06/07 06:05:19;;;;;;;8.50;4.88;;;;;;;23.95;53.39;100402.97;5055799;28;20045;-73
2021/06/07 06:07:48;;;;;;;7.15;4.78;;;;;;;23.99;52.68;100401.59;5056023;28;20033;-74
2021/06/07 06:10:17;;;;;;;9.65;5.25;;;;;;;24.62;51.11;100402.53;5055758;28;20131;-73
2021/06/07 06:12:46;;;;;;;7.20;4.65;;;;;;;26.74;46.08;100403.19;5055160;28;20124;-72
2021/06/07 06:15:16;;;;;;;7.93;4.80;;;;;;;28.05;42.38;100404.53;5055739;28;20048;-73
2021/06/07 06:17:44;;;;;;;6.70;5.00;;;;;;;28.04;42.04;100413.81;5055523;28;20044;-73
2021/06/07 06:20:13;;;;;;;7.20;4.53;;;;;;;29.01;40.04;100400.72;5055951;28;20052;-72
2021/06/07 06:22:43;;;;;;;8.75;4.75;;;;;;;29.52;38.66;100402.88;5055297;28;20083;-71
2021/06/07 06:25:12;;;;;;;6.57;4.38;;;;;;;29.38;38.68;100406.69;5055839;28;20041;-72
2021/06/07 06:27:40;;;;;;;8.25;4.10;;;;;;;29.37;38.16;100405.00;5055622;28;20041;-69
2021/06/07 06:30:11;;;;;;;6.45;4.00;;;;;;;28.61;39.39;100404.41;5055432;28;20043;-72
2021/06/07 06:32:39;;;;;;;7.07;3.78;;;;;;;28.74;38.36;100407.16;5055147;28;20162;-74
2021/06/07 06:35:08;;;;;;;8.00;3.90;;;;;;;29.18;38.24;100405.81;5055432;28;20049;-77
2021/06/07 06:37:36;;;;;;;7.22;3.95;;;;;;;29.41;37.10;100408.16;5055270;28;20124;-77
2021/06/07 06:40:08;;;;;;;6.72;3.78;;;;;;;29.95;37.34;100404.34;5055253;28;20135;-74
2021/06/07 06:42:36;;;;;;;6.25;4.30;;;;;;;30.35;35.94;100405.06;5054565;28;20047;-76
2021/06/07 06:45:04;;;;;;;7.75;3.97;;;;;;;30.13;36.06;100405.38;5055088;28;20053;-74
2021/06/07 06:47:34;;;;;;;6.05;4.00;;;;;;;30.32;34.89;100411.03;5054121;28;20106;-70
2021/06/07 06:50:04;;;;;;;7.70;4.20;;;;;;;30.81;34.01;100406.81;5054204;28;20502;-73
2021/06/07 06:52:32;;;;;;;7.45;4.05;;;;;;;31.00;33.45;100405.84;5054810;28;20045;-75
2021/06/07 06:55:00;;;;;;;6.68;4.00;;;;;;;30.81;33.55;100407.63;5055060;28;20438;-77
2021/06/07 06:57:29;;;;;;;8.10;4.15;;;;;;;30.05;34.75;100413.81;5054817;28;20126;-73
2021/06/07 06:59:57;;;;;;;6.00;3.85;;;;;;;29.78;34.91;100409.44;5055735;28;20075;-76
2021/06/07 07:02:24;;;;;;;5.80;3.50;;;;;;;29.53;35.69;100415.59;5054878;28;20048;-72
2021/06/07 07:04:52;;;;;;;7.60;3.40;;;;;;;29.31;35.33;100408.56;5057321;28;20037;-71
2021/06/07 07:07:20;;;;;;;6.88;3.63;;;;;;;28.80;35.19;100412.69;5054719;28;20037;-70
2021/06/07 07:09:48;;;;;;;4.68;3.35;;;;;;;28.86;35.39;100415.69;5054606;28;20401;-76
2021/06/07 07:12:16;;;;;;;6.50;3.45;;;;;;;28.85;34.55;100417.53;5054560;28;20478;-74
2021/06/07 07:14:45;;;;;;;6.07;3.50;;;;;;;28.64;35.73;100418.53;5054602;28;20049;-74
2021/06/07 07:17:13;;;;;;;7.18;3.53;;;;;;;28.47;35.85;100415.34;5054491;28;20076;-73
2021/06/07 07:19:41;;;;;;;6.05;3.90;;;;;;;28.15;36.17;100410.50;5054515;28;20071;-76
2021/06/07 07:22:09;;;;;;;5.70;3.30;;;;;;;28.26;36.24;100409.91;5054225;28;20102;-75
2021/06/07 07:24:43;;;;;;;7.03;3.58;;;;;;;28.15;35.64;100408.59;5054362;28;20049;-74
2021/06/07 07:27:12;;;;;;;4.45;3.40;;;;;;;28.44;35.66;100421.22;5053963;28;20482;-76
2021/06/07 07:29:42;;;;;;;7.78;3.80;;;;;;;28.39;36.25;100414.66;5054280;28;20049;-72
2021/06/07 07:32:11;;;;;;;10.75;4.07;;;;;;;28.17;36.12;100419.34;5054182;28;20048;-75
2021/06/07 07:34:41;;;;;;;6.13;4.00;;;;;;;28.04;35.75;100424.78;5054066;28;20489;-75
2021/06/07 07:37:11;;;;;;;5.35;3.30;;;;;;;28.39;36.17;100421.00;5053864;28;20049;-75
2021/06/07 07:39:39;;;;;;;5.95;3.85;;;;;;;28.45;35.08;100419.31;5054267;28;20045;-72
2021/06/07 07:42:08;;;;;;;9.70;4.60;;;;;;;28.27;35.54;100419.81;5053770;28;20049;-72
2021/06/07 07:44:36;;;;;;;6.85;3.92;;;;;;;28.07;36.47;100421.63;5054174;28;20057;-73
2021/06/07 07:47:07;;;;;;;9.05;3.90;;;;;;;28.08;37.72;100423.31;5053460;28;20516;-74
2021/06/07 07:49:36;;;;;;;6.72;4.20;;;;;;;28.05;38.25;100426.47;5051505;28;20498;-73
2021/06/07 07:52:07;;;;;;;8.48;4.40;;;;;;;27.77;39.24;100424.59;5052947;28;20045;-75
2021/06/07 07:54:36;;;;;;;11.32;4.20;;;;;;;27.36;40.44;100422.56;5053761;28;20040;-73
2021/06/07 07:57:05;;;;;;;7.68;4.00;;;;;;;26.81;40.52;100423.22;5053739;28;20375;-73
2021/06/07 07:59:34;;;;;;;7.78;4.25;;;;;;;26.80;40.89;100425.13;5053496;28;20083;-74
2021/06/07 08:02:02;;;;;;;5.88;4.20;;;;;;;26.58;40.65;100423.41;5053567;28;20045;-82
2021/06/07 08:04:30;;;;;;;6.38;4.10;;;;;;;26.66;40.66;100417.81;5053608;28;20474;-79
2021/06/07 08:06:59;;;;;;;8.75;4.53;;;;;;;26.43;42.84;100425.31;5053690;28;20048;-75
2021/06/07 08:09:30;;;;;;;8.88;4.35;;;;;;;26.20;43.87;100428.97;5053533;28;20049;-75
2021/06/07 08:11:58;;;;;;;8.50;4.15;;;;;;;26.17;43.90;100428.53;5053777;28;20048;-70
2021/06/07 08:14:28;;;;;;;9.18;4.78;;;;;;;25.80;44.43;100429.44;5052902;28;20045;-68
2021/06/07 08:16:56;;;;;;;8.50;4.30;;;;;;;25.73;45.06;100434.78;5053548;28;20075;-70
2021/06/07 08:19:25;;;;;;;7.45;4.50;;;;;;;25.71;44.40;100436.88;5053329;28;20037;-72
2021/06/07 08:21:54;;;;;;;9.45;4.35;;;;;;;25.77;43.63;100433.41;5053286;28;20047;-69
2021/06/07 08:24:23;;;;;;;7.60;4.43;;;;;;;25.71;43.90;100436.03;5053027;28;20041;-72
2021/06/07 08:26:53;;;;;;;7.47;4.57;;;;;;;25.79;43.90;100438.69;5053237;28;20048;-76
2021/06/07 08:29:21;;;;;;;10.60;4.78;;;;;;;25.86;43.76;100434.16;5053361;28;20049;-74
2021/06/07 08:31:49;;;;;;;6.30;4.38;;;;;;;25.82;44.40;100432.84;5053377;28;20037;-74
2021/06/07 08:34:16;;;;;;;8.98;4.40;;;;;;;25.91;44.41;100432.56;5052677;28;20045;-76
2021/06/07 08:36:44;;;;;;;8.30;4.35;;;;;;;25.93;43.31;100435.94;5053036;28;20044;-71
2021/06/07 08:39:12;;;;;;;8.82;4.78;;;;;;;26.02;43.53;100433.97;5052915;28;20132;-73
2021/06/07 08:41:41;;;;;;;10.27;5.45;;;;;;;26.17;43.63;100436.72;5052997;28;20167;-70
2021/06/07 08:44:24;;;;;;;14.32;4.97;;;;;;;26.24;43.32;100435.75;5052443;28;20056;-70
2021/06/07 08:46:52;;;;;;;8.10;5.05;;;;;;;26.34;43.21;100434.63;5053052;28;20045;-71
2021/06/07 08:49:20;;;;;;;9.48;5.03;;;;;;;26.44;42.81;100432.47;5052422;28;20486;-71
2021/06/07 08:51:49;;;;;;;11.05;4.28;;;;;;;26.34;43.48;100431.88;5052775;28;20045;-70
2021/06/07 08:54:17;;;;;;;7.57;5.05;;;;;;;26.37;42.71;100432.41;5052645;28;20060;-71
2021/06/07 08:56:46;;;;;;;9.68;4.60;;;;;;;26.44;42.43;100427.00;5053020;28;20045;-72
2021/06/07 08:59:14;;;;;;;9.45;5.53;;;;;;;26.45;42.54;100428.72;5052856;28;20421;-72
2021/06/07 09:01:43;;;;;;;7.65;4.60;;;;;;;26.71;41.58;100418.06;5052868;28;20045;-71
2021/06/07 09:04:13;;;;;;;8.40;4.57;;;;;;;27.15;40.72;100424.47;5052355;28;20040;-74
2021/06/07 09:06:43;;;;;;;8.73;4.63;;;;;;;27.49;39.60;100415.50;5051576;28;20049;-74
2021/06/07 09:09:12;;;;;;;8.73;4.63;;;;;;;27.53;39.50;100422.28;5052806;28;20040;-73
2021/06/07 09:11:47;;;;;;;7.82;4.53;;;;;;;27.56;38.33;100419.97;5052030;28;20107;-71
2021/06/07 09:14:23;;;;;;;7.70;4.30;;;;;;;27.60;38.20;100414.94;5052367;28;20048;-74
2021/06/07 09:16:51;;;;;;;7.60;4.72;;;;;;;27.43;37.43;100408.94;5052309;28;20045;-72
2021/06/07 09:19:24;;;;;;;5.70;4.38;;;;;;;27.71;37.32;100408.97;5052585;28;20037;-74
2021/06/07 09:21:58;;;;;;;6.80;4.20;;;;;;;27.72;37.43;100412.56;5052876;28;20052;-71
2021/06/07 09:24:26;;;;;;;5.80;4.40;;;;;;;27.87;37.61;100408.63;5052416;28;20076;-75
2021/06/07 09:27:07;;;;;;;7.07;4.03;;;;;;;27.75;36.83;100412.16;5052586;28;20041;-72
2021/06/07 09:29:37;;;;;;;6.68;4.22;;;;;;;27.71;37.21;100408.97;5052555;28;20041;-74
2021/06/07 09:32:05;;;;;;;9.25;4.57;;;;;;;27.41;37.19;100407.41;5052699;28;20425;-72
2021/06/07 09:34:35;;;;;;;8.68;4.38;;;;;;;27.61;36.38;100403.81;5052346;28;20082;-73
2021/06/07 09:37:08;;;;;;;10.20;4.38;;;;;;;27.32;37.10;100404.84;5052662;28;20079;-72
2021/06/07 09:39:37;;;;;;;7.03;4.30;;;;;;;27.47;36.94;100402.00;5052997;28;20041;-76
2021/06/07 09:42:08;;;;;;;6.47;4.50;;;;;;;26.90;37.99;100413.00;5052267;28;20036;-73
2021/06/07 09:44:44;;;;;;;6.75;4.45;;;;;;;27.11;37.09;100404.84;5052164;28;20053;-75
2021/06/07 09:47:23;;;;;;;6.25;3.95;;;;;;;27.03;37.17;100414.03;5051876;28;20044;-74
2021/06/07 09:49:54;;;;;;;7.15;4.10;;;;;;;27.07;37.79;100407.13;5052558;28;20048;-71
2021/06/07 09:52:25;;;;;;;7.88;4.20;;;;;;;26.97;38.31;100405.72;5052019;28;20095;-71
2021/06/07 09:55:07;;;;;;;5.75;4.18;;;;;;;26.87;38.15;100406.03;5056255;28;20124;-72
2021/06/07 09:57:47;;;;;;;7.05;3.85;;;;;;;26.85;37.52;100402.66;5052860;28;20037;-72
2021/06/07 10:00:39;;;;;;;7.47;4.00;;;;;;;26.55;38.56;100401.06;5051849;28;20041;-70
2021/06/07 10:03:22;;;;;;;7.47;4.60;;;;;;;26.89;37.71;100397.63;5051694;28;20045;-69
2021/06/07 10:05:51;;;;;;;7.72;4.10;;;;;;;26.82;38.22;100403.88;5052251;28;20453;-71
2021/06/07 10:08:22;;;;;;;6.47;4.30;;;;;;;26.84;38.29;100394.66;5051679;28;20110;-74
2021/06/07 10:10:50;;;;;;;8.38;4.57;;;;;;;27.20;37.22;100389.97;5052521;28;20063;-83
2021/06/07 10:13:19;;;;;;;7.28;4.35;;;;;;;27.39;37.24;100393.91;5051977;28;20044;-73
2021/06/07 10:15:49;;;;;;;7.65;4.50;;;;;;;27.58;37.05;100384.16;5052191;28;20052;-73
2021/06/07 10:18:18;;;;;;;5.70;3.70;;;;;;;27.62;35.87;100382.75;5051989;28;20091;-72
2021/06/07 10:20:48;;;;;;;6.47;4.40;;;;;;;27.42;36.38;100389.97;5052141;28;20040;-79
2021/06/07 10:23:18;;;;;;;4.97;3.83;;;;;;;27.35;36.12;100392.63;5053512;28;20070;-74
2021/06/07 10:25:46;;;;;;;5.40;4.05;;;;;;;27.15;36.40;100387.00;5055610;28;20490;-73
2021/06/07 10:28:14;;;;;;;7.25;4.10;;;;;;;27.04;36.47;100384.78;5055339;28;20110;-73
2021/06/07 10:30:45;;;;;;;6.63;4.07;;;;;;;26.91;36.50;100390.06;5055476;28;20379;-73
2021/06/07 10:33:30;;;;;;;7.88;4.20;;;;;;;26.91;36.78;100390.91;5055284;28;20045;-73
2021/06/07 10:36:19;;;;;;;7.63;4.30;;;;;;;27.01;36.32;100385.13;5055427;28;20535;-73
2021/06/07 10:38:46;;;;;;;5.32;3.92;;;;;;;26.86;36.65;100382.47;5055331;28;20111;-73
2021/06/07 10:41:21;;;;;;;6.95;4.13;;;;;;;26.90;36.58;100385.66;5055080;28;20064;-75
2021/06/07 10:43:51;;;;;;;6.45;4.07;;;;;;;27.07;36.52;100384.38;5055318;28;20445;-74
2021/06/07 10:46:29;;;;;;;5.97;3.88;;;;;;;27.32;36.14;100377.47;5054988;28;20079;-73
2021/06/07 10:48:58;;;;;;;6.88;4.00;;;;;;;27.60;36.24;100379.31;5055502;28;20041;-73
2021/06/07 10:51:29;;;;;;;7.30;4.15;;;;;;;28.06;35.73;100368.69;5055066;28;20083;-73
2021/06/07 10:54:31;;;;;;;10.68;5.32;;;;;;;28.35;35.55;100375.81;5055261;28;20045;-74
2021/06/07 10:57:32;;;;;;;8.55;4.45;;;;;;;28.41;36.00;100371.41;5055142;28;20421;-74
2021/06/07 11:00:04;;;;;;;11.15;4.97;;;;;;;28.22;35.76;100356.53;5055065;28;20470;-73
2021/06/07 11:02:36;;;;;;;10.20;4.65;;;;;;;28.49;36.18;100352.88;5055459;28;20052;-73
2021/06/07 11:05:08;;;;;;;7.38;4.60;;;;;;;28.60;35.72;100358.81;5055001;28;20071;-74
2021/06/07 11:07:36;;;;;;;8.13;4.40;;;;;;;28.07;36.61;100355.81;5055201;28;20445;-73
2021/06/07 11:10:23;;;;;;;6.68;4.72;;;;;;;27.82;36.09;100358.22;5054852;28;20044;-75
2021/06/07 11:12:52;;;;;;;9.30;5.80;;;;;;;27.97;36.34;100352.59;5054745;28;20494;-73
2021/06/07 11:15:22;;;;;;;7.60;4.60;;;;;;;27.79;36.48;100353.13;5054885;28;20044;-74
2021/06/07 11:17:52;;;;;;;6.15;4.35;;;;;;;27.45;37.41;100356.69;5054683;28;20095;-73
2021/06/07 11:20:32;;;;;;;6.38;4.40;;;;;;;27.56;37.07;100342.44;5054467;28;20076;-74
2021/06/07 11:23:05;;;;;;;8.02;4.40;;;;;;;27.27;37.69;100358.03;5054788;28;20056;-73
2021/06/07 11:25:43;;;;;;;8.15;4.88;;;;;;;27.36;37.20;100351.34;5054674;28;20079;-74
2021/06/07 11:28:41;;;;;;;7.95;4.72;;;;;;;27.33;37.24;100340.81;5054178;28;20399;-73
2021/06/07 11:31:48;;;;;;;8.25;4.55;;;;;;;27.68;37.07;100349.06;5054362;28;20041;-73
2021/06/07 11:34:36;;;;;;;7.22;4.70;;;;;;;27.41;36.88;100339.81;5053791;28;20080;-75
2021/06/07 11:37:04;;;;;;;9.68;4.53;;;;;;;27.34;36.88;100350.72;5044457;28;20421;-74
2021/06/07 11:39:51;;;;;;;6.97;4.40;;;;;;;27.27;37.59;100344.31;5054516;28;20124;-74